Impacts TAF Board INFO
FOR SITUATIONAL AWARENESS. NOT TO BE USED FOR FLIGHT PLANNING PURPOSES.
IDs:

KMDW - Chicago/Midway Intl, IL, US

Issued at 1736 UTC 17 Jan 2018
Updated at 1741 UTC 17 Jan 2018
Potential Impact None Slight Moderate High
Time1653Z 17/18Z 17/19Z 17/20Z 17/21Z 17/22Z 17/23Z 18/00Z 18/01Z 18/02Z 18/03Z 18/04Z 18/05Z 18/06Z>>
Type OBS PRVL PRVL PRVL PRVL PRVL PRVL PRVL PRVL PRVL PRVL PRVL PRVL PRVL
VIS 10 >6 >6 >6 >6 >6 >6 >6 >6 >6 >6 >6 >6 >6
CIG -- -- -- -- -- -- -- -- -- -- -- -- -- --
Cover FEW SCT SCT SCT SCT FEW FEW FEW FEW FEW FEW FEW FEW FEW
FltCat VFR VFR VFR VFR VFR VFR VFR VFR VFR VFR VFR VFR VFR VFR
WX -- -- -- -- -- -- -- -- -- -- -- -- -- --
WDir 250 240 240 240 240 240 240 240 240 240 240 240 240 240
WSpd 9 12 12 12 12 16 16 16 16 16 16 16 16 16
WGst -- 18 18 18 18 24 24 24 24 24 24 24 24 24

Raw TAF
KMDW 171736Z 1718/1824 24012G18KT P6SM SCT100
  FM172200 24016G24KT P6SM FEW150
  FM180900 24012G20KT P6SM FEW250


Raw METAR
KMDW 171653Z 25009KT 10SM FEW250 M09/M13 A3053 RMK AO2 SLP360 T10891133
KMDW 171553Z 25006KT 10SM FEW250 M11/M14 A3055 RMK AO2 SLP366 T11061144
KMDW 171453Z 26007KT 10SM FEW250 M13/M15 A3054 RMK AO2 SLP363 I3000 T11281150 53003

METAR Board
Radar Display
Forecast Discussion

FOR SITUATIONAL AWARENESS. NOT TO BE USED FOR FLIGHT PLANNING PURPOSES.